sensor_id;sensor_type;location;lat;lon;timestamp;P1;durP1;ratioP1;P2;durP2;ratioP2
34403;SDS011;23116;47.660;9.126;2023-05-07T00:02:07;1.85;;;1.20;;
34403;SDS011;23116;47.660;9.126;2023-05-07T00:04:34;2.38;;;1.55;;
34403;SDS011;23116;47.660;9.126;2023-05-07T00:07:04;1.42;;;1.33;;
34403;SDS011;23116;47.660;9.126;2023-05-07T00:09:31;1.52;;;1.42;;
34403;SDS011;23116;47.660;9.126;2023-05-07T00:11:58;2.85;;;1.70;;
34403;SDS011;23116;47.660;9.126;2023-05-07T00:14:25;1.50;;;1.40;;
34403;SDS011;23116;47.660;9.126;2023-05-07T00:16:52;2.03;;;1.63;;
34403;SDS011;23116;47.660;9.126;2023-05-07T00:19:20;1.52;;;1.42;;
34403;SDS011;23116;47.660;9.126;2023-05-07T00:21:47;2.05;;;1.90;;
34403;SDS011;23116;47.660;9.126;2023-05-07T00:24:14;2.53;;;1.73;;
34403;SDS011;23116;47.660;9.126;2023-05-07T00:26:41;2.17;;;1.60;;
34403;SDS011;23116;47.660;9.126;2023-05-07T00:29:08;2.08;;;1.70;;
34403;SDS011;23116;47.660;9.126;2023-05-07T00:31:35;2.05;;;1.63;;
34403;SDS011;23116;47.660;9.126;2023-05-07T00:34:02;1.27;;;1.23;;
34403;SDS011;23116;47.660;9.126;2023-05-07T00:36:30;1.60;;;1.50;;
34403;SDS011;23116;47.660;9.126;2023-05-07T00:38:59;1.80;;;1.70;;
34403;SDS011;23116;47.660;9.126;2023-05-07T00:41:28;1.52;;;1.42;;
34403;SDS011;23116;47.660;9.126;2023-05-07T00:43:56;1.70;;;1.25;;
34403;SDS011;23116;47.660;9.126;2023-05-07T00:46:23;1.50;;;1.40;;
34403;SDS011;23116;47.660;9.126;2023-05-07T00:48:50;1.60;;;1.50;;
34403;SDS011;23116;47.660;9.126;2023-05-07T00:51:18;1.33;;;1.23;;
34403;SDS011;23116;47.660;9.126;2023-05-07T00:53:45;1.90;;;1.70;;
34403;SDS011;23116;47.660;9.126;2023-05-07T00:56:13;2.00;;;1.70;;
34403;SDS011;23116;47.660;9.126;2023-05-07T00:58:43;1.70;;;1.60;;
34403;SDS011;23116;47.660;9.126;2023-05-07T01:01:10;3.22;;;1.88;;
34403;SDS011;23116;47.660;9.126;2023-05-07T01:03:38;1.80;;;1.58;;
34403;SDS011;23116;47.660;9.126;2023-05-07T01:06:05;1.67;;;1.58;;
34403;SDS011;23116;47.660;9.126;2023-05-07T01:08:34;1.48;;;1.38;;
34403;SDS011;23116;47.660;9.126;2023-05-07T01:11:01;2.85;;;1.75;;
34403;SDS011;23116;47.660;9.126;2023-05-07T01:13:29;1.35;;;1.25;;
34403;SDS011;23116;47.660;9.126;2023-05-07T01:15:56;1.73;;;1.63;;
34403;SDS011;23116;47.660;9.126;2023-05-07T01:18:23;1.42;;;1.33;;
34403;SDS011;23116;47.660;9.126;2023-05-07T01:20:51;1.30;;;1.20;;
34403;SDS011;23116;47.660;9.126;2023-05-07T01:23:19;1.75;;;1.65;;
34403;SDS011;23116;47.660;9.126;2023-05-07T01:25:51;1.80;;;1.70;;
34403;SDS011;23116;47.660;9.126;2023-05-07T01:28:19;1.50;;;1.40;;
34403;SDS011;23116;47.660;9.126;2023-05-07T01:30:53;2.10;;;1.38;;
34403;SDS011;23116;47.660;9.126;2023-05-07T01:33:25;1.70;;;1.60;;
34403;SDS011;23116;47.660;9.126;2023-05-07T01:35:56;1.88;;;1.77;;
34403;SDS011;23116;47.660;9.126;2023-05-07T01:38:27;2.10;;;1.65;;
34403;SDS011;23116;47.660;9.126;2023-05-07T01:40:55;2.35;;;1.88;;
34403;SDS011;23116;47.660;9.126;2023-05-07T01:43:22;1.63;;;1.52;;
34403;SDS011;23116;47.660;9.126;2023-05-07T01:45:50;2.80;;;1.70;;
34403;SDS011;23116;47.660;9.126;2023-05-07T01:48:17;2.13;;;2.03;;
34403;SDS011;23116;47.660;9.126;2023-05-07T01:50:45;1.98;;;1.88;;
34403;SDS011;23116;47.660;9.126;2023-05-07T01:53:13;2.25;;;1.92;;
34403;SDS011;23116;47.660;9.126;2023-05-07T01:55:40;1.88;;;1.70;;
34403;SDS011;23116;47.660;9.126;2023-05-07T01:58:07;3.22;;;1.50;;
34403;SDS011;23116;47.660;9.126;2023-05-07T02:00:35;1.92;;;1.83;;
34403;SDS011;23116;47.660;9.126;2023-05-07T02:03:02;1.98;;;1.80;;
34403;SDS011;23116;47.660;9.126;2023-05-07T02:05:30;2.30;;;2.10;;
34403;SDS011;23116;47.660;9.126;2023-05-07T02:07:57;2.08;;;1.95;;
34403;SDS011;23116;47.660;9.126;2023-05-07T02:10:24;1.80;;;1.70;;
34403;SDS011;23116;47.660;9.126;2023-05-07T02:12:51;1.73;;;1.58;;
34403;SDS011;23116;47.660;9.126;2023-05-07T02:15:18;1.65;;;1.55;;
34403;SDS011;23116;47.660;9.126;2023-05-07T02:17:59;2.35;;;1.98;;
34403;SDS011;23116;47.660;9.126;2023-05-07T02:20:31;2.42;;;2.22;;
34403;SDS011;23116;47.660;9.126;2023-05-07T02:22:58;1.65;;;1.55;;
34403;SDS011;23116;47.660;9.126;2023-05-07T02:25:27;1.88;;;1.70;;
34403;SDS011;23116;47.660;9.126;2023-05-07T02:27:55;2.05;;;1.95;;
34403;SDS011;23116;47.660;9.126;2023-05-07T02:30:22;2.70;;;1.80;;
34403;SDS011;23116;47.660;9.126;2023-05-07T02:32:50;1.90;;;1.70;;
34403;SDS011;23116;47.660;9.126;2023-05-07T02:35:17;2.40;;;2.20;;
34403;SDS011;23116;47.660;9.126;2023-05-07T02:37:45;2.17;;;1.95;;
34403;SDS011;23116;47.660;9.126;2023-05-07T02:40:12;3.80;;;1.85;;
34403;SDS011;23116;47.660;9.126;2023-05-07T02:42:42;2.20;;;2.00;;
34403;SDS011;23116;47.660;9.126;2023-05-07T02:45:09;2.17;;;1.92;;
34403;SDS011;23116;47.660;9.126;2023-05-07T02:47:36;1.75;;;1.65;;
34403;SDS011;23116;47.660;9.126;2023-05-07T02:50:03;2.13;;;2.03;;
34403;SDS011;23116;47.660;9.126;2023-05-07T02:52:31;1.67;;;1.58;;
34403;SDS011;23116;47.660;9.126;2023-05-07T02:54:58;1.90;;;1.80;;
34403;SDS011;23116;47.660;9.126;2023-05-07T02:57:25;1.95;;;1.85;;
34403;SDS011;23116;47.660;9.126;2023-05-07T02:59:52;2.00;;;1.90;;
34403;SDS011;23116;47.660;9.126;2023-05-07T03:02:20;3.92;;;2.33;;
34403;SDS011;23116;47.660;9.126;2023-05-07T03:04:47;2.17;;;2.05;;
34403;SDS011;23116;47.660;9.126;2023-05-07T03:07:14;2.55;;;2.35;;
34403;SDS011;23116;47.660;9.126;2023-05-07T03:09:41;2.60;;;2.40;;
34403;SDS011;23116;47.660;9.126;2023-05-07T03:12:08;2.42;;;2.22;;
34403;SDS011;23116;47.660;9.126;2023-05-07T03:14:35;2.22;;;2.00;;
34403;SDS011;23116;47.660;9.126;2023-05-07T03:17:02;2.47;;;2.28;;
34403;SDS011;23116;47.660;9.126;2023-05-07T03:19:29;4.03;;;2.38;;
34403;SDS011;23116;47.660;9.126;2023-05-07T03:21:56;2.75;;;2.55;;
34403;SDS011;23116;47.660;9.126;2023-05-07T03:24:23;2.45;;;2.15;;
34403;SDS011;23116;47.660;9.126;2023-05-07T03:26:50;2.40;;;2.20;;
34403;SDS011;23116;47.660;9.126;2023-05-07T03:29:17;2.90;;;2.60;;
34403;SDS011;23116;47.660;9.126;2023-05-07T03:31:45;2.92;;;2.50;;
34403;SDS011;23116;47.660;9.126;2023-05-07T03:34:12;3.40;;;2.63;;
34403;SDS011;23116;47.660;9.126;2023-05-07T03:36:47;3.45;;;2.75;;
34403;SDS011;23116;47.660;9.126;2023-05-07T03:39:14;2.38;;;2.20;;
34403;SDS011;23116;47.660;9.126;2023-05-07T03:41:41;2.58;;;2.38;;
34403;SDS011;23116;47.660;9.126;2023-05-07T03:44:08;2.53;;;2.33;;
34403;SDS011;23116;47.660;9.126;2023-05-07T03:46:35;2.22;;;2.03;;
34403;SDS011;23116;47.660;9.126;2023-05-07T03:49:02;3.08;;;2.10;;
34403;SDS011;23116;47.660;9.126;2023-05-07T03:51:30;3.72;;;2.20;;
34403;SDS011;23116;47.660;9.126;2023-05-07T03:53:57;2.95;;;2.10;;
34403;SDS011;23116;47.660;9.126;2023-05-07T03:56:24;2.60;;;2.40;;
34403;SDS011;23116;47.660;9.126;2023-05-07T03:58:52;2.70;;;2.28;;
34403;SDS011;23116;47.660;9.126;2023-05-07T04:01:20;2.78;;;2.58;;
34403;SDS011;23116;47.660;9.126;2023-05-07T04:03:47;3.30;;;2.50;;
34403;SDS011;23116;47.660;9.126;2023-05-07T04:06:15;2.50;;;2.30;;
34403;SDS011;23116;47.660;9.126;2023-05-07T04:08:42;2.85;;;2.60;;
34403;SDS011;23116;47.660;9.126;2023-05-07T04:11:09;2.65;;;2.45;;
34403;SDS011;23116;47.660;9.126;2023-05-07T04:13:37;2.60;;;2.40;;
34403;SDS011;23116;47.660;9.126;2023-05-07T04:16:04;2.22;;;2.05;;
34403;SDS011;23116;47.660;9.126;2023-05-07T04:18:32;2.67;;;2.47;;
34403;SDS011;23116;47.660;9.126;2023-05-07T04:20:59;3.35;;;3.05;;
34403;SDS011;23116;47.660;9.126;2023-05-07T04:23:26;3.42;;;2.35;;
34403;SDS011;23116;47.660;9.126;2023-05-07T04:25:53;2.42;;;1.90;;
34403;SDS011;23116;47.660;9.126;2023-05-07T04:28:21;2.40;;;2.20;;
34403;SDS011;23116;47.660;9.126;2023-05-07T04:30:48;2.20;;;2.00;;
34403;SDS011;23116;47.660;9.126;2023-05-07T04:33:15;2.10;;;2.00;;
34403;SDS011;23116;47.660;9.126;2023-05-07T04:36:03;2.15;;;1.95;;
34403;SDS011;23116;47.660;9.126;2023-05-07T04:38:30;2.22;;;2.00;;
34403;SDS011;23116;47.660;9.126;2023-05-07T04:41:04;1.98;;;1.88;;
34403;SDS011;23116;47.660;9.126;2023-05-07T04:43:33;1.98;;;1.88;;
34403;SDS011;23116;47.660;9.126;2023-05-07T04:46:00;1.98;;;1.85;;
34403;SDS011;23116;47.660;9.126;2023-05-07T04:48:27;1.60;;;1.50;;
34403;SDS011;23116;47.660;9.126;2023-05-07T04:50:55;1.80;;;1.70;;
34403;SDS011;23116;47.660;9.126;2023-05-07T04:53:22;2.30;;;1.95;;
34403;SDS011;23116;47.660;9.126;2023-05-07T04:55:54;1.80;;;1.70;;
34403;SDS011;23116;47.660;9.126;2023-05-07T04:58:24;1.83;;;1.73;;
34403;SDS011;23116;47.660;9.126;2023-05-07T05:00:52;2.33;;;2.03;;
34403;SDS011;23116;47.660;9.126;2023-05-07T05:05:48;1.70;;;1.50;;
34403;SDS011;23116;47.660;9.126;2023-05-07T05:08:17;1.55;;;1.45;;
34403;SDS011;23116;47.660;9.126;2023-05-07T05:10:44;1.70;;;1.60;;
34403;SDS011;23116;47.660;9.126;2023-05-07T05:13:13;1.60;;;1.50;;
34403;SDS011;23116;47.660;9.126;2023-05-07T05:15:40;2.20;;;2.00;;
34403;SDS011;23116;47.660;9.126;2023-05-07T05:18:08;2.78;;;1.95;;
34403;SDS011;23116;47.660;9.126;2023-05-07T05:20:35;1.88;;;1.77;;
34403;SDS011;23116;47.660;9.126;2023-05-07T05:23:02;1.95;;;1.85;;
34403;SDS011;23116;47.660;9.126;2023-05-07T05:25:29;2.38;;;2.17;;
34403;SDS011;23116;47.660;9.126;2023-05-07T05:27:56;2.20;;;2.10;;
34403;SDS011;23116;47.660;9.126;2023-05-07T05:30:23;2.05;;;1.95;;
34403;SDS011;23116;47.660;9.126;2023-05-07T05:32:50;1.88;;;1.75;;
34403;SDS011;23116;47.660;9.126;2023-05-07T05:35:18;2.17;;;1.92;;
34403;SDS011;23116;47.660;9.126;2023-05-07T05:37:45;2.40;;;2.30;;
34403;SDS011;23116;47.660;9.126;2023-05-07T05:40:13;1.83;;;1.73;;
34403;SDS011;23116;47.660;9.126;2023-05-07T05:42:43;2.30;;;2.10;;
34403;SDS011;23116;47.660;9.126;2023-05-07T05:45:10;2.47;;;2.28;;
34403;SDS011;23116;47.660;9.126;2023-05-07T05:47:37;2.20;;;2.00;;
34403;SDS011;23116;47.660;9.126;2023-05-07T05:50:05;2.67;;;1.73;;
34403;SDS011;23116;47.660;9.126;2023-05-07T05:52:33;2.40;;;1.98;;
34403;SDS011;23116;47.660;9.126;2023-05-07T05:55:00;1.95;;;1.85;;
34403;SDS011;23116;47.660;9.126;2023-05-07T05:57:27;2.33;;;2.13;;
34403;SDS011;23116;47.660;9.126;2023-05-07T05:59:54;2.03;;;1.92;;
34403;SDS011;23116;47.660;9.126;2023-05-07T06:02:21;1.65;;;1.55;;
34403;SDS011;23116;47.660;9.126;2023-05-07T06:04:48;1.70;;;1.60;;
34403;SDS011;23116;47.660;9.126;2023-05-07T06:07:15;2.63;;;2.13;;
34403;SDS011;23116;47.660;9.126;2023-05-07T06:09:43;2.40;;;2.20;;
34403;SDS011;23116;47.660;9.126;2023-05-07T06:12:10;2.80;;;2.60;;
34403;SDS011;23116;47.660;9.126;2023-05-07T06:14:37;2.67;;;2.47;;
34403;SDS011;23116;47.660;9.126;2023-05-07T06:17:06;2.60;;;2.40;;
34403;SDS011;23116;47.660;9.126;2023-05-07T06:19:33;2.08;;;1.90;;
34403;SDS011;23116;47.660;9.126;2023-05-07T06:22:00;2.38;;;2.17;;
34403;SDS011;23116;47.660;9.126;2023-05-07T06:24:28;2.42;;;2.30;;
34403;SDS011;23116;47.660;9.126;2023-05-07T06:26:55;2.17;;;1.98;;
34403;SDS011;23116;47.660;9.126;2023-05-07T06:29:23;3.03;;;2.33;;
34403;SDS011;23116;47.660;9.126;2023-05-07T06:31:53;2.72;;;2.28;;
34403;SDS011;23116;47.660;9.126;2023-05-07T06:34:20;2.35;;;2.15;;
34403;SDS011;23116;47.660;9.126;2023-05-07T06:36:47;4.30;;;2.25;;
34403;SDS011;23116;47.660;9.126;2023-05-07T06:39:15;2.53;;;2.33;;
34403;SDS011;23116;47.660;9.126;2023-05-07T06:41:42;2.50;;;2.30;;
34403;SDS011;23116;47.660;9.126;2023-05-07T06:44:09;2.78;;;2.58;;
34403;SDS011;23116;47.660;9.126;2023-05-07T06:46:36;2.60;;;2.40;;
34403;SDS011;23116;47.660;9.126;2023-05-07T06:49:05;3.17;;;2.60;;
34403;SDS011;23116;47.660;9.126;2023-05-07T06:51:32;2.70;;;2.50;;
34403;SDS011;23116;47.660;9.126;2023-05-07T06:53:59;2.65;;;2.45;;
34403;SDS011;23116;47.660;9.126;2023-05-07T06:56:26;2.58;;;2.38;;
34403;SDS011;23116;47.660;9.126;2023-05-07T06:58:53;3.10;;;2.60;;
34403;SDS011;23116;47.660;9.126;2023-05-07T07:01:21;2.67;;;2.47;;
34403;SDS011;23116;47.660;9.126;2023-05-07T07:03:48;3.08;;;2.30;;
34403;SDS011;23116;47.660;9.126;2023-05-07T07:06:16;2.60;;;2.40;;
34403;SDS011;23116;47.660;9.126;2023-05-07T07:08:43;2.47;;;2.28;;
34403;SDS011;23116;47.660;9.126;2023-05-07T07:11:10;2.78;;;2.58;;
34403;SDS011;23116;47.660;9.126;2023-05-07T07:13:37;2.50;;;2.30;;
34403;SDS011;23116;47.660;9.126;2023-05-07T07:16:05;2.60;;;2.40;;
34403;SDS011;23116;47.660;9.126;2023-05-07T07:18:32;2.85;;;2.58;;
34403;SDS011;23116;47.660;9.126;2023-05-07T07:20:59;3.15;;;2.88;;
34403;SDS011;23116;47.660;9.126;2023-05-07T07:23:26;2.85;;;2.60;;
34403;SDS011;23116;47.660;9.126;2023-05-07T07:25:53;2.92;;;2.72;;
34403;SDS011;23116;47.660;9.126;2023-05-07T07:28:21;3.00;;;2.78;;
34403;SDS011;23116;47.660;9.126;2023-05-07T07:30:48;2.83;;;2.63;;
34403;SDS011;23116;47.660;9.126;2023-05-07T07:33:15;3.35;;;3.05;;
34403;SDS011;23116;47.660;9.126;2023-05-07T07:35:42;3.92;;;2.90;;
34403;SDS011;23116;47.660;9.126;2023-05-07T07:38:10;3.25;;;2.95;;
34403;SDS011;23116;47.660;9.126;2023-05-07T07:40:37;2.70;;;2.50;;
34403;SDS011;23116;47.660;9.126;2023-05-07T07:43:04;2.97;;;2.67;;
34403;SDS011;23116;47.660;9.126;2023-05-07T07:45:32;3.20;;;2.90;;
34403;SDS011;23116;47.660;9.126;2023-05-07T07:47:59;2.97;;;2.65;;
34403;SDS011;23116;47.660;9.126;2023-05-07T07:50:27;2.70;;;2.45;;
34403;SDS011;23116;47.660;9.126;2023-05-07T07:52:54;2.72;;;2.53;;
34403;SDS011;23116;47.660;9.126;2023-05-07T07:55:22;2.95;;;2.70;;
34403;SDS011;23116;47.660;9.126;2023-05-07T07:57:49;3.03;;;2.80;;
34403;SDS011;23116;47.660;9.126;2023-05-07T08:00:16;2.95;;;2.60;;
34403;SDS011;23116;47.660;9.126;2023-05-07T08:02:44;3.10;;;2.90;;
34403;SDS011;23116;47.660;9.126;2023-05-07T08:05:11;4.10;;;3.25;;
34403;SDS011;23116;47.660;9.126;2023-05-07T08:07:38;3.28;;;2.97;;
34403;SDS011;23116;47.660;9.126;2023-05-07T08:10:05;2.92;;;2.28;;
34403;SDS011;23116;47.660;9.126;2023-05-07T08:12:33;2.80;;;2.50;;
34403;SDS011;23116;47.660;9.126;2023-05-07T08:15:00;2.72;;;2.53;;
34403;SDS011;23116;47.660;9.126;2023-05-07T08:17:28;2.65;;;2.45;;
34403;SDS011;23116;47.660;9.126;2023-05-07T08:19:55;3.03;;;2.63;;
34403;SDS011;23116;47.660;9.126;2023-05-07T08:22:22;3.10;;;2.72;;
34403;SDS011;23116;47.660;9.126;2023-05-07T08:24:49;3.10;;;2.80;;
34403;SDS011;23116;47.660;9.126;2023-05-07T08:27:18;2.70;;;2.50;;
34403;SDS011;23116;47.660;9.126;2023-05-07T08:29:45;2.55;;;2.35;;
34403;SDS011;23116;47.660;9.126;2023-05-07T08:32:13;2.83;;;2.45;;
34403;SDS011;23116;47.660;9.126;2023-05-07T08:34:40;2.72;;;2.50;;
34403;SDS011;23116;47.660;9.126;2023-05-07T08:37:08;3.00;;;2.72;;
34403;SDS011;23116;47.660;9.126;2023-05-07T08:39:35;2.90;;;2.53;;
34403;SDS011;23116;47.660;9.126;2023-05-07T08:42:04;2.63;;;2.42;;
34403;SDS011;23116;47.660;9.126;2023-05-07T08:44:35;2.72;;;2.50;;
34403;SDS011;23116;47.660;9.126;2023-05-07T08:47:03;4.88;;;2.97;;
34403;SDS011;23116;47.660;9.126;2023-05-07T08:49:33;2.60;;;2.40;;
34403;SDS011;23116;47.660;9.126;2023-05-07T08:52:01;2.22;;;2.13;;
34403;SDS011;23116;47.660;9.126;2023-05-07T08:54:28;2.60;;;2.40;;
34403;SDS011;23116;47.660;9.126;2023-05-07T08:56:55;2.17;;;1.80;;
34403;SDS011;23116;47.660;9.126;2023-05-07T08:59:22;2.30;;;2.10;;
34403;SDS011;23116;47.660;9.126;2023-05-07T09:01:49;3.47;;;2.33;;
34403;SDS011;23116;47.660;9.126;2023-05-07T09:04:17;2.53;;;2.20;;
34403;SDS011;23116;47.660;9.126;2023-05-07T09:06:44;2.47;;;2.00;;
34403;SDS011;23116;47.660;9.126;2023-05-07T09:09:16;2.50;;;2.30;;
34403;SDS011;23116;47.660;9.126;2023-05-07T09:11:44;2.25;;;2.13;;
34403;SDS011;23116;47.660;9.126;2023-05-07T09:14:11;2.10;;;1.90;;
34403;SDS011;23116;47.660;9.126;2023-05-07T09:16:38;2.08;;;1.88;;
34403;SDS011;23116;47.660;9.126;2023-05-07T09:19:05;2.20;;;2.00;;
34403;SDS011;23116;47.660;9.126;2023-05-07T09:21:32;2.78;;;1.95;;
34403;SDS011;23116;47.660;9.126;2023-05-07T09:24:00;1.35;;;1.25;;
34403;SDS011;23116;47.660;9.126;2023-05-07T09:26:27;1.90;;;1.80;;
34403;SDS011;23116;47.660;9.126;2023-05-07T09:28:54;1.42;;;1.35;;
34403;SDS011;23116;47.660;9.126;2023-05-07T09:31:21;1.50;;;1.40;;
34403;SDS011;23116;47.660;9.126;2023-05-07T09:33:50;1.33;;;1.23;;
34403;SDS011;23116;47.660;9.126;2023-05-07T09:36:18;1.30;;;1.20;;
34403;SDS011;23116;47.660;9.126;2023-05-07T09:38:45;1.40;;;1.30;;
34403;SDS011;23116;47.660;9.126;2023-05-07T09:41:13;1.60;;;1.50;;
34403;SDS011;23116;47.660;9.126;2023-05-07T09:43:43;1.30;;;1.20;;
34403;SDS011;23116;47.660;9.126;2023-05-07T09:46:11;1.30;;;1.20;;
34403;SDS011;23116;47.660;9.126;2023-05-07T09:48:42;1.45;;;1.35;;
34403;SDS011;23116;47.660;9.126;2023-05-07T09:51:16;1.50;;;1.40;;
34403;SDS011;23116;47.660;9.126;2023-05-07T09:53:56;1.38;;;1.08;;
34403;SDS011;23116;47.660;9.126;2023-05-07T09:56:26;1.48;;;1.38;;
34403;SDS011;23116;47.660;9.126;2023-05-07T09:58:54;1.13;;;1.10;;
34403;SDS011;23116;47.660;9.126;2023-05-07T10:01:29;1.33;;;1.23;;
34403;SDS011;23116;47.660;9.126;2023-05-07T10:03:57;1.75;;;1.50;;
34403;SDS011;23116;47.660;9.126;2023-05-07T10:06:26;2.92;;;1.40;;
34403;SDS011;23116;47.660;9.126;2023-05-07T10:08:55;1.27;;;1.10;;
34403;SDS011;23116;47.660;9.126;2023-05-07T10:11:23;1.33;;;1.10;;
34403;SDS011;23116;47.660;9.126;2023-05-07T10:13:50;4.43;;;2.25;;
34403;SDS011;23116;47.660;9.126;2023-05-07T10:16:19;1.67;;;1.35;;
34403;SDS011;23116;47.660;9.126;2023-05-07T10:18:50;1.58;;;1.42;;
34403;SDS011;23116;47.660;9.126;2023-05-07T10:21:20;1.60;;;1.50;;
34403;SDS011;23116;47.660;9.126;2023-05-07T10:23:49;1.30;;;1.20;;
34403;SDS011;23116;47.660;9.126;2023-05-07T10:26:28;2.80;;;1.50;;
34403;SDS011;23116;47.660;9.126;2023-05-07T10:28:58;1.50;;;1.10;;
34403;SDS011;23116;47.660;9.126;2023-05-07T10:35:02;2.80;;;1.25;;
34403;SDS011;23116;47.660;9.126;2023-05-07T10:40:01;1.40;;;1.20;;
34403;SDS011;23116;47.660;9.126;2023-05-07T10:42:29;1.30;;;1.20;;
34403;SDS011;23116;47.660;9.126;2023-05-07T10:44:56;1.70;;;1.60;;
34403;SDS011;23116;47.660;9.126;2023-05-07T10:47:36;1.50;;;1.40;;
34403;SDS011;23116;47.660;9.126;2023-05-07T10:50:36;2.25;;;1.65;;
34403;SDS011;23116;47.660;9.126;2023-05-07T10:55:48;2.08;;;1.05;;
34403;SDS011;23116;47.660;9.126;2023-05-07T10:58:27;1.42;;;1.33;;
34403;SDS011;23116;47.660;9.126;2023-05-07T11:00:58;1.58;;;1.48;;
34403;SDS011;23116;47.660;9.126;2023-05-07T11:03:27;1.67;;;1.55;;
34403;SDS011;23116;47.660;9.126;2023-05-07T11:06:08;2.75;;;1.75;;
34403;SDS011;23116;47.660;9.126;2023-05-07T11:17:07;1.92;;;1.20;;
34403;SDS011;23116;47.660;9.126;2023-05-07T11:19:47;1.90;;;1.55;;
34403;SDS011;23116;47.660;9.126;2023-05-07T11:25:01;1.67;;;1.58;;
34403;SDS011;23116;47.660;9.126;2023-05-07T11:27:30;1.67;;;1.50;;
34403;SDS011;23116;47.660;9.126;2023-05-07T11:29:58;1.25;;;1.15;;
34403;SDS011;23116;47.660;9.126;2023-05-07T11:32:29;1.60;;;1.20;;
34403;SDS011;23116;47.660;9.126;2023-05-07T11:34:58;1.50;;;1.40;;
34403;SDS011;23116;47.660;9.126;2023-05-07T11:37:26;1.23;;;1.13;;
34403;SDS011;23116;47.660;9.126;2023-05-07T11:40:02;1.40;;;1.30;;
34403;SDS011;23116;47.660;9.126;2023-05-07T11:42:32;1.38;;;1.20;;
34403;SDS011;23116;47.660;9.126;2023-05-07T11:45:02;1.20;;;1.10;;
34403;SDS011;23116;47.660;9.126;2023-05-07T11:47:31;1.40;;;1.30;;
34403;SDS011;23116;47.660;9.126;2023-05-07T11:50:04;1.27;;;1.17;;
34403;SDS011;23116;47.660;9.126;2023-05-07T11:52:32;1.55;;;1.33;;
34403;SDS011;23116;47.660;9.126;2023-05-07T11:55:01;1.40;;;1.30;;
34403;SDS011;23116;47.660;9.126;2023-05-07T11:57:29;1.42;;;1.33;;
34403;SDS011;23116;47.660;9.126;2023-05-07T11:59:59;1.85;;;1.17;;
34403;SDS011;23116;47.660;9.126;2023-05-07T12:02:29;1.52;;;1.40;;
34403;SDS011;23116;47.660;9.126;2023-05-07T12:04:56;1.48;;;1.38;;
34403;SDS011;23116;47.660;9.126;2023-05-07T12:07:25;1.33;;;1.23;;
34403;SDS011;23116;47.660;9.126;2023-05-07T12:09:53;1.35;;;1.25;;
34403;SDS011;23116;47.660;9.126;2023-05-07T12:12:20;1.60;;;1.50;;
34403;SDS011;23116;47.660;9.126;2023-05-07T12:14:47;1.38;;;1.27;;
34403;SDS011;23116;47.660;9.126;2023-05-07T12:17:15;1.55;;;1.45;;
34403;SDS011;23116;47.660;9.126;2023-05-07T12:19:43;1.00;;;1.00;;
34403;SDS011;23116;47.660;9.126;2023-05-07T12:22:11;1.30;;;1.20;;
34403;SDS011;23116;47.660;9.126;2023-05-07T12:24:49;1.63;;;1.23;;
34403;SDS011;23116;47.660;9.126;2023-05-07T12:27:24;1.38;;;1.27;;
34403;SDS011;23116;47.660;9.126;2023-05-07T12:29:52;1.50;;;1.40;;
34403;SDS011;23116;47.660;9.126;2023-05-07T12:32:20;0.90;;;0.90;;
34403;SDS011;23116;47.660;9.126;2023-05-07T12:34:50;1.85;;;1.30;;
34403;SDS011;23116;47.660;9.126;2023-05-07T12:37:22;1.08;;;1.08;;
34403;SDS011;23116;47.660;9.126;2023-05-07T12:40:07;1.30;;;1.20;;
34403;SDS011;23116;47.660;9.126;2023-05-07T12:42:36;1.60;;;1.50;;
34403;SDS011;23116;47.660;9.126;2023-05-07T12:45:08;1.20;;;1.10;;
34403;SDS011;23116;47.660;9.126;2023-05-07T12:47:45;1.60;;;1.50;;
34403;SDS011;23116;47.660;9.126;2023-05-07T12:50:13;1.85;;;1.35;;
34403;SDS011;23116;47.660;9.126;2023-05-07T12:52:41;1.52;;;1.33;;
34403;SDS011;23116;47.660;9.126;2023-05-07T12:55:12;1.15;;;1.05;;
34403;SDS011;23116;47.660;9.126;2023-05-07T12:57:42;2.45;;;1.27;;
34403;SDS011;23116;47.660;9.126;2023-05-07T13:00:16;1.40;;;1.30;;
34403;SDS011;23116;47.660;9.126;2023-05-07T13:03:03;1.30;;;1.20;;
34403;SDS011;23116;47.660;9.126;2023-05-07T13:05:31;1.50;;;1.40;;
34403;SDS011;23116;47.660;9.126;2023-05-07T13:07:59;1.70;;;1.23;;
34403;SDS011;23116;47.660;9.126;2023-05-07T13:10:26;1.50;;;1.30;;
34403;SDS011;23116;47.660;9.126;2023-05-07T13:12:54;1.35;;;1.27;;
34403;SDS011;23116;47.660;9.126;2023-05-07T13:15:21;1.52;;;1.42;;
34403;SDS011;23116;47.660;9.126;2023-05-07T13:17:48;3.35;;;1.60;;
34403;SDS011;23116;47.660;9.126;2023-05-07T13:20:15;1.55;;;1.45;;
34403;SDS011;23116;47.660;9.126;2023-05-07T13:22:42;1.80;;;1.55;;
34403;SDS011;23116;47.660;9.126;2023-05-07T13:25:10;2.30;;;1.30;;
34403;SDS011;23116;47.660;9.126;2023-05-07T13:27:37;1.63;;;1.35;;
34403;SDS011;23116;47.660;9.126;2023-05-07T13:30:04;1.85;;;1.50;;
34403;SDS011;23116;47.660;9.126;2023-05-07T13:32:32;1.55;;;1.42;;
34403;SDS011;23116;47.660;9.126;2023-05-07T13:35:00;1.33;;;1.10;;
34403;SDS011;23116;47.660;9.126;2023-05-07T13:37:27;2.13;;;1.38;;
34403;SDS011;23116;47.660;9.126;2023-05-07T13:39:54;1.40;;;1.30;;
34403;SDS011;23116;47.660;9.126;2023-05-07T13:42:21;1.55;;;1.45;;
34403;SDS011;23116;47.660;9.126;2023-05-07T13:44:49;1.40;;;1.30;;
34403;SDS011;23116;47.660;9.126;2023-05-07T13:47:16;1.40;;;1.30;;
34403;SDS011;23116;47.660;9.126;2023-05-07T13:49:43;1.40;;;1.30;;
34403;SDS011;23116;47.660;9.126;2023-05-07T13:52:10;1.30;;;1.20;;
34403;SDS011;23116;47.660;9.126;2023-05-07T13:54:37;1.50;;;1.30;;
34403;SDS011;23116;47.660;9.126;2023-05-07T13:57:04;1.60;;;1.50;;
34403;SDS011;23116;47.660;9.126;2023-05-07T13:59:31;1.33;;;1.23;;
34403;SDS011;23116;47.660;9.126;2023-05-07T14:01:59;1.60;;;1.35;;
34403;SDS011;23116;47.660;9.126;2023-05-07T14:04:26;1.45;;;1.35;;
34403;SDS011;23116;47.660;9.126;2023-05-07T14:06:53;1.50;;;1.40;;
34403;SDS011;23116;47.660;9.126;2023-05-07T14:09:20;1.50;;;1.35;;
34403;SDS011;23116;47.660;9.126;2023-05-07T14:11:47;1.25;;;1.15;;
34403;SDS011;23116;47.660;9.126;2023-05-07T14:14:19;1.17;;;1.05;;
34403;SDS011;23116;47.660;9.126;2023-05-07T14:16:46;1.10;;;1.10;;
34403;SDS011;23116;47.660;9.126;2023-05-07T14:19:13;1.10;;;1.10;;
34403;SDS011;23116;47.660;9.126;2023-05-07T14:21:40;1.08;;;0.98;;
34403;SDS011;23116;47.660;9.126;2023-05-07T14:24:08;1.38;;;1.00;;
34403;SDS011;23116;47.660;9.126;2023-05-07T14:26:36;1.52;;;0.88;;
34403;SDS011;23116;47.660;9.126;2023-05-07T14:29:03;2.35;;;0.73;;
34403;SDS011;23116;47.660;9.126;2023-05-07T14:31:30;1.15;;;1.05;;
34403;SDS011;23116;47.660;9.126;2023-05-07T14:33:58;1.48;;;1.05;;
34403;SDS011;23116;47.660;9.126;2023-05-07T14:36:25;1.00;;;0.82;;
34403;SDS011;23116;47.660;9.126;2023-05-07T14:38:53;0.60;;;0.60;;
34403;SDS011;23116;47.660;9.126;2023-05-07T14:41:21;0.75;;;0.55;;
34403;SDS011;23116;47.660;9.126;2023-05-07T14:43:48;1.30;;;1.08;;
34403;SDS011;23116;47.660;9.126;2023-05-07T14:46:19;0.80;;;0.80;;
34403;SDS011;23116;47.660;9.126;2023-05-07T14:48:46;0.90;;;0.90;;
34403;SDS011;23116;47.660;9.126;2023-05-07T14:51:13;1.25;;;0.90;;
34403;SDS011;23116;47.660;9.126;2023-05-07T14:53:41;0.90;;;0.90;;
34403;SDS011;23116;47.660;9.126;2023-05-07T14:56:08;0.93;;;0.88;;
34403;SDS011;23116;47.660;9.126;2023-05-07T14:58:35;0.80;;;0.80;;
34403;SDS011;23116;47.660;9.126;2023-05-07T15:01:03;0.85;;;0.73;;
34403;SDS011;23116;47.660;9.126;2023-05-07T15:03:30;1.00;;;1.00;;
34403;SDS011;23116;47.660;9.126;2023-05-07T15:05:57;1.00;;;0.90;;
34403;SDS011;23116;47.660;9.126;2023-05-07T15:08:25;0.90;;;0.90;;
34403;SDS011;23116;47.660;9.126;2023-05-07T15:10:52;1.10;;;1.00;;
34403;SDS011;23116;47.660;9.126;2023-05-07T15:13:20;0.80;;;0.70;;
34403;SDS011;23116;47.660;9.126;2023-05-07T15:15:47;0.88;;;0.70;;
34403;SDS011;23116;47.660;9.126;2023-05-07T15:18:15;0.80;;;0.80;;